createdAt,value
2019-05-10T00:00:16.897Z,1.70
2019-05-10T00:01:19.870Z,1.70
2019-05-10T00:02:16.844Z,1.70
2019-05-10T00:03:16.852Z,1.70
2019-05-10T00:04:16.801Z,1.70
2019-05-10T00:05:16.774Z,1.70
2019-05-10T00:06:16.750Z,1.80
2019-05-10T00:07:16.727Z,1.50
2019-05-10T00:08:16.704Z,1.70
2019-05-10T00:09:16.680Z,1.80
2019-05-10T00:10:16.657Z,1.60
2019-05-10T00:11:16.634Z,1.70
2019-05-10T00:12:16.610Z,1.80
2019-05-10T00:13:16.586Z,1.70
2019-05-10T00:14:16.563Z,1.50
2019-05-10T00:15:16.613Z,1.70
2019-05-10T00:16:16.518Z,1.60
2019-05-10T00:17:16.493Z,1.40
2019-05-10T00:18:16.473Z,1.50
2019-05-10T00:19:16.447Z,1.30
2019-05-10T00:20:16.424Z,1.40
2019-05-10T00:21:16.400Z,1.50
2019-05-10T00:22:16.380Z,1.50
2019-05-10T00:23:16.354Z,1.60
2019-05-10T00:24:16.331Z,1.50
2019-05-10T00:25:16.307Z,1.30
2019-05-10T00:26:16.283Z,1.10
2019-05-10T00:27:16.260Z,1.40
2019-05-10T00:28:16.237Z,1.20
2019-05-10T00:29:16.214Z,1.40
2019-05-10T00:30:16.201Z,1.40
2019-05-10T00:31:16.175Z,1.40
2019-05-10T00:32:16.144Z,1.40
2019-05-10T00:33:16.120Z,1.30
2019-05-10T00:34:16.096Z,1.40
2019-05-10T00:35:16.074Z,1.40
2019-05-10T00:36:16.051Z,1.40
2019-05-10T00:37:16.026Z,1.50
2019-05-10T00:38:16.004Z,1.40
2019-05-10T00:39:19.259Z,1.40
2019-05-10T00:40:15.966Z,1.50
2019-05-10T00:41:15.934Z,1.30
2019-05-10T00:42:15.991Z,1.50
2019-05-10T00:43:15.988Z,2.10
2019-05-10T00:44:15.866Z,2.80
2019-05-10T00:45:15.842Z,2.30
2019-05-10T00:46:15.817Z,1.40
2019-05-10T00:47:15.793Z,1.60
2019-05-10T00:48:15.772Z,1.60
2019-05-10T00:49:15.747Z,1.50
2019-05-10T00:50:15.735Z,1.40
2019-05-10T00:51:15.702Z,1.80
2019-05-10T00:52:15.677Z,1.40
2019-05-10T00:53:15.653Z,1.50
2019-05-10T00:54:15.632Z,1.40
2019-05-10T00:55:18.767Z,1.30
2019-05-10T00:56:15.586Z,1.20
2019-05-10T00:57:15.560Z,1.60
2019-05-10T00:58:15.537Z,1.60
2019-05-10T00:59:15.514Z,1.30
2019-05-10T01:00:15.491Z,1.50
2019-05-10T01:01:18.602Z,1.70
2019-05-10T01:02:15.443Z,1.70
2019-05-10T01:03:15.420Z,1.80
2019-05-10T01:04:16.147Z,1.60
2019-05-10T01:05:15.374Z,1.90
2019-05-10T01:06:15.349Z,1.70
2019-05-10T01:07:15.327Z,1.70
2019-05-10T01:08:15.302Z,1.70
2019-05-10T01:09:15.278Z,1.80
2019-05-10T01:10:15.254Z,1.50
2019-05-10T01:11:15.230Z,1.40
2019-05-10T01:12:15.207Z,1.60
2019-05-10T01:13:15.182Z,1.50
2019-05-10T01:14:15.162Z,1.50
2019-05-10T01:15:15.136Z,1.60
2019-05-10T01:16:15.112Z,1.40
2019-05-10T01:17:15.087Z,1.70
2019-05-10T01:18:15.066Z,1.60
2019-05-10T01:19:15.044Z,1.50
2019-05-10T01:20:15.016Z,1.70
2019-05-10T01:21:14.994Z,1.80
2019-05-10T01:22:14.967Z,1.50
2019-05-10T01:23:14.945Z,1.70
2019-05-10T01:24:14.927Z,1.80
2019-05-10T01:25:14.896Z,1.60
2019-05-10T01:26:14.872Z,1.80
2019-05-10T01:27:14.852Z,1.60
2019-05-10T01:28:14.828Z,1.60
2019-05-10T01:29:14.800Z,1.90
2019-05-10T01:30:14.776Z,1.90
2019-05-10T01:31:14.752Z,1.80
2019-05-10T01:32:14.730Z,1.60
2019-05-10T01:33:14.704Z,1.70
2019-05-10T01:34:14.681Z,2.00
2019-05-10T01:35:14.656Z,2.00
2019-05-10T01:36:14.631Z,2.00
2019-05-10T01:37:14.607Z,2.10
2019-05-10T01:38:14.583Z,2.20
2019-05-10T01:39:14.559Z,2.00
2019-05-10T01:40:14.535Z,2.00
2019-05-10T01:41:14.510Z,2.10
2019-05-10T01:42:14.486Z,2.30
2019-05-10T01:43:14.462Z,2.30
2019-05-10T01:44:14.437Z,2.10
2019-05-10T01:45:14.415Z,2.20
2019-05-10T01:46:15.139Z,2.30
2019-05-10T01:47:14.365Z,2.10
2019-05-10T01:48:14.339Z,2.10
2019-05-10T01:49:14.316Z,2.00
2019-05-10T01:50:14.290Z,2.10
2019-05-10T01:51:14.266Z,1.90
2019-05-10T01:52:14.242Z,2.40
2019-05-10T01:53:14.217Z,2.30
2019-05-10T01:54:14.192Z,1.70
2019-05-10T01:55:14.168Z,2.20
2019-05-10T01:56:14.145Z,1.70
2019-05-10T01:57:14.119Z,1.60
2019-05-10T01:58:14.094Z,1.60
2019-05-10T01:59:14.070Z,1.90
2019-05-10T02:00:14.045Z,1.80
2019-05-10T02:01:14.031Z,1.90
2019-05-10T02:02:13.997Z,1.60
2019-05-10T02:03:13.971Z,2.00
2019-05-10T02:04:17.395Z,2.10
2019-05-10T02:05:13.922Z,1.90
2019-05-10T02:06:13.897Z,1.80
2019-05-10T02:07:16.876Z,2.00
2019-05-10T02:08:13.859Z,2.10
2019-05-10T02:09:13.848Z,2.00
2019-05-10T02:10:13.800Z,2.00
2019-05-10T02:11:13.812Z,1.90
2019-05-10T02:12:13.751Z,2.00
2019-05-10T02:13:13.725Z,2.00
2019-05-10T02:14:13.700Z,1.90
2019-05-10T02:15:13.677Z,1.90
2019-05-10T02:16:13.651Z,1.90
2019-05-10T02:17:13.626Z,2.00
2019-05-10T02:18:13.603Z,1.90
2019-05-10T02:19:13.577Z,2.20
2019-05-10T02:20:13.559Z,2.10
2019-05-10T02:21:13.529Z,2.30
2019-05-10T02:22:13.505Z,2.40
2019-05-10T02:23:13.481Z,2.20
2019-05-10T02:24:13.458Z,2.30
2019-05-10T02:25:13.431Z,2.60
2019-05-10T02:26:13.408Z,2.40
2019-05-10T02:27:13.385Z,2.80
2019-05-10T02:28:13.366Z,2.30
2019-05-10T02:29:13.334Z,2.60
2019-05-10T02:30:13.310Z,2.40
2019-05-10T02:31:13.290Z,2.20
2019-05-10T02:32:13.263Z,2.90
2019-05-10T02:33:13.237Z,2.40
2019-05-10T02:34:13.212Z,4.00
2019-05-10T02:35:13.202Z,4.60
2019-05-10T02:36:13.163Z,4.30
2019-05-10T02:37:13.140Z,3.60
2019-05-10T02:38:13.118Z,3.30
2019-05-10T02:39:13.093Z,3.10
2019-05-10T02:40:13.067Z,2.70
2019-05-10T02:41:13.041Z,2.80
2019-05-10T02:42:13.016Z,2.80
2019-05-10T02:43:12.993Z,2.50
2019-05-10T02:44:12.969Z,2.50
2019-05-10T02:45:14.445Z,2.60
2019-05-10T02:46:12.929Z,2.70
2019-05-10T02:47:12.905Z,2.70
2019-05-10T02:48:12.872Z,2.50
2019-05-10T02:49:12.847Z,2.50
2019-05-10T02:50:12.825Z,2.70
2019-05-10T02:51:12.859Z,2.50
2019-05-10T02:52:12.777Z,2.70
2019-05-10T02:53:12.755Z,2.80
2019-05-10T02:54:12.731Z,2.50
2019-05-10T02:55:12.702Z,2.50
2019-05-10T02:56:29.055Z,2.40
2019-05-10T02:57:12.756Z,2.60
2019-05-10T02:58:15.348Z,3.00
2019-05-10T02:59:12.611Z,2.90
2019-05-10T03:00:12.583Z,2.60
2019-05-10T03:01:12.557Z,2.60
2019-05-10T03:02:12.537Z,2.50
2019-05-10T03:03:12.524Z,2.80
2019-05-10T03:04:12.489Z,2.50
2019-05-10T03:05:12.461Z,2.50
2019-05-10T03:06:12.439Z,2.40
2019-05-10T03:07:12.415Z,2.60
2019-05-10T03:08:12.395Z,2.20
2019-05-10T03:09:12.366Z,2.40
2019-05-10T03:10:12.345Z,2.30
2019-05-10T03:11:12.319Z,2.20
2019-05-10T03:12:13.047Z,2.40
2019-05-10T03:13:12.269Z,2.50
2019-05-10T03:14:12.247Z,2.40
2019-05-10T03:15:12.253Z,2.40
2019-05-10T03:16:12.197Z,2.50
2019-05-10T03:17:12.174Z,2.60
2019-05-10T03:18:12.149Z,2.90
2019-05-10T03:19:12.126Z,2.70
2019-05-10T03:20:12.117Z,2.60
2019-05-10T03:21:12.082Z,2.30
2019-05-10T03:22:12.054Z,2.70
2019-05-10T03:23:12.031Z,2.30
2019-05-10T03:24:12.008Z,2.50
2019-05-10T03:25:12.007Z,2.30
2019-05-10T03:26:11.957Z,2.90
2019-05-10T03:27:11.933Z,2.40
2019-05-10T03:28:11.910Z,2.50
2019-05-10T03:29:11.886Z,2.70
2019-05-10T03:30:11.871Z,2.60
2019-05-10T03:31:11.846Z,2.30
2019-05-10T03:32:11.818Z,2.30
2019-05-10T03:33:11.793Z,2.30
2019-05-10T03:34:11.765Z,2.40
2019-05-10T03:35:11.747Z,2.70
2019-05-10T03:36:11.716Z,2.20
2019-05-10T03:37:11.691Z,2.40
2019-05-10T03:38:11.667Z,2.50
2019-05-10T03:39:11.645Z,2.50
2019-05-10T03:40:11.622Z,2.20
2019-05-10T03:41:11.596Z,2.20
2019-05-10T03:42:11.573Z,2.60
2019-05-10T03:43:11.660Z,2.50
2019-05-10T03:44:11.524Z,2.70
2019-05-10T03:45:11.505Z,2.50
2019-05-10T03:46:11.476Z,2.70
2019-05-10T03:47:11.453Z,2.50
2019-05-10T03:48:11.436Z,2.50
2019-05-10T03:49:11.404Z,2.50
2019-05-10T03:50:11.382Z,2.60
2019-05-10T03:51:11.357Z,2.40
2019-05-10T03:52:11.332Z,2.40
2019-05-10T03:53:11.307Z,2.40
2019-05-10T03:54:11.285Z,2.30
2019-05-10T03:55:11.258Z,2.30
2019-05-10T03:56:11.245Z,2.70
2019-05-10T03:57:14.290Z,2.50
2019-05-10T03:58:11.194Z,2.10
2019-05-10T03:59:11.164Z,2.50
2019-05-10T04:00:11.182Z,2.40
2019-05-10T04:01:11.119Z,2.50
2019-05-10T04:02:11.092Z,2.70
2019-05-10T04:03:11.078Z,2.50
2019-05-10T04:04:11.056Z,2.70
2019-05-10T04:05:11.027Z,2.70
2019-05-10T04:06:11.002Z,2.60
2019-05-10T04:07:10.971Z,2.60
2019-05-10T04:08:10.950Z,2.20
2019-05-10T04:09:11.013Z,2.60
2019-05-10T04:10:11.648Z,2.70
2019-05-10T04:11:10.883Z,2.20
2019-05-10T04:12:10.855Z,2.50
2019-05-10T04:13:10.832Z,2.30
2019-05-10T04:14:10.813Z,2.30
2019-05-10T04:15:10.780Z,2.30
2019-05-10T04:16:10.755Z,2.40
2019-05-10T04:17:10.730Z,2.10
2019-05-10T04:18:10.715Z,2.60
2019-05-10T04:19:10.683Z,2.30
2019-05-10T04:20:10.660Z,2.60
2019-05-10T04:21:10.635Z,2.50
2019-05-10T04:22:10.614Z,2.50
2019-05-10T04:23:10.587Z,2.30
2019-05-10T04:24:10.565Z,2.50
2019-05-10T04:25:10.540Z,2.50
2019-05-10T04:26:10.525Z,2.80
2019-05-10T04:27:29.505Z,2.80
2019-05-10T04:28:10.470Z,2.90
2019-05-10T04:29:10.442Z,3.00
2019-05-10T04:30:10.420Z,2.50
2019-05-10T04:31:10.396Z,3.10
2019-05-10T04:32:10.371Z,2.70
2019-05-10T04:33:10.347Z,2.60
2019-05-10T04:34:10.328Z,2.50
2019-05-10T04:35:10.300Z,2.60
2019-05-10T04:36:12.707Z,2.60
2019-05-10T04:37:10.251Z,2.70
2019-05-10T04:38:10.227Z,2.60
2019-05-10T04:39:10.203Z,2.50
2019-05-10T04:40:10.182Z,2.30
2019-05-10T04:41:10.252Z,2.40
2019-05-10T04:42:10.880Z,2.40
2019-05-10T04:43:10.106Z,2.60
2019-05-10T04:44:10.093Z,4.30
2019-05-10T04:45:10.165Z,3.20
2019-05-10T04:46:10.038Z,3.00
2019-05-10T04:47:10.010Z,2.50
2019-05-10T04:48:09.988Z,2.20
2019-05-10T04:49:09.960Z,2.30
2019-05-10T04:50:09.937Z,2.50
2019-05-10T04:51:09.918Z,2.30
2019-05-10T04:52:09.889Z,2.90
2019-05-10T04:53:09.864Z,2.10
2019-05-10T04:54:09.840Z,1.90
2019-05-10T04:55:09.822Z,2.00
2019-05-10T04:56:09.794Z,2.40
2019-05-10T04:57:09.771Z,2.70
2019-05-10T04:58:09.745Z,2.30
2019-05-10T04:59:09.720Z,2.60
2019-05-10T05:00:09.697Z,3.00
2019-05-10T05:01:09.673Z,2.60
2019-05-10T05:02:09.649Z,2.90
2019-05-10T05:03:09.625Z,2.70
2019-05-10T05:04:11.102Z,2.40
2019-05-10T05:05:09.581Z,2.40
2019-05-10T05:06:09.561Z,2.10
2019-05-10T05:07:09.531Z,2.00
2019-05-10T05:08:09.504Z,2.50
2019-05-10T05:09:09.480Z,2.20
2019-05-10T05:10:10.208Z,2.20
2019-05-10T05:11:09.433Z,1.90
2019-05-10T05:12:09.407Z,2.30
2019-05-10T05:13:09.383Z,2.60
2019-05-10T05:14:09.795Z,3.70
2019-05-10T05:15:09.335Z,2.70
2019-05-10T05:16:09.312Z,3.40
2019-05-10T05:17:09.287Z,3.20
2019-05-10T05:18:09.270Z,2.90
2019-05-10T05:19:09.240Z,2.70
2019-05-10T05:20:09.216Z,2.80
2019-05-10T05:21:09.192Z,2.50
2019-05-10T05:22:09.167Z,2.80
2019-05-10T05:23:09.143Z,2.80
2019-05-10T05:24:09.120Z,2.30
2019-05-10T05:25:09.097Z,2.30
2019-05-10T05:26:09.071Z,2.70
2019-05-10T05:27:09.047Z,2.90
2019-05-10T05:28:09.024Z,2.50
2019-05-10T05:29:08.999Z,2.20
2019-05-10T05:30:08.976Z,2.40
2019-05-10T05:31:08.958Z,2.80
2019-05-10T05:32:08.943Z,2.60
2019-05-10T05:33:08.905Z,2.50
2019-05-10T05:34:08.880Z,2.40
2019-05-10T05:35:08.855Z,2.30
2019-05-10T05:36:08.834Z,2.30
2019-05-10T05:37:08.811Z,2.60
2019-05-10T05:38:08.784Z,2.60
2019-05-10T05:39:08.760Z,3.50
2019-05-10T05:40:08.737Z,2.80
2019-05-10T05:41:08.721Z,2.40
2019-05-10T05:42:08.712Z,2.50
2019-05-10T05:43:09.852Z,2.60
2019-05-10T05:44:08.649Z,2.40
2019-05-10T05:45:08.616Z,2.00
2019-05-10T05:46:08.593Z,2.40
2019-05-10T05:47:08.569Z,2.60
2019-05-10T05:48:08.545Z,2.40
2019-05-10T05:49:08.522Z,2.20
2019-05-10T05:50:08.499Z,2.10
2019-05-10T05:51:08.508Z,2.50
2019-05-10T05:52:08.454Z,2.20
2019-05-10T05:53:08.427Z,1.90
2019-05-10T05:54:08.453Z,2.40
2019-05-10T05:55:08.380Z,2.50
2019-05-10T05:56:12.506Z,2.60
2019-05-10T05:57:08.334Z,2.70
2019-05-10T05:58:25.291Z,2.60
2019-05-10T05:59:09.103Z,2.50
2019-05-10T06:00:08.267Z,2.40
2019-05-10T06:01:08.246Z,2.70
2019-05-10T06:02:09.609Z,2.80
2019-05-10T06:03:08.192Z,3.20
2019-05-10T06:04:12.476Z,2.50
2019-05-10T06:05:08.143Z,2.50
2019-05-10T06:06:15.249Z,3.50
2019-05-10T06:07:08.097Z,4.70
2019-05-10T06:08:21.267Z,2.80
2019-05-10T06:09:08.049Z,2.30
2019-05-10T06:10:10.157Z,2.70
2019-05-10T06:11:09.179Z,2.40
2019-05-10T06:12:12.597Z,2.90
2019-05-10T06:13:09.463Z,2.80
2019-05-10T06:14:10.680Z,2.70
2019-05-10T06:15:07.918Z,2.50
2019-05-10T06:16:12.889Z,2.50
2019-05-10T06:17:07.864Z,2.60
2019-05-10T06:18:09.573Z,2.70
2019-05-10T06:19:07.821Z,2.60
2019-05-10T06:20:07.923Z,2.70
2019-05-10T06:21:07.766Z,2.30
2019-05-10T06:22:07.743Z,2.70
2019-05-10T06:23:07.725Z,2.20
2019-05-10T06:24:13.385Z,2.00
2019-05-10T06:25:07.683Z,2.30
2019-05-10T06:26:08.071Z,2.50
2019-05-10T06:27:07.628Z,2.60
2019-05-10T06:28:25.015Z,2.40
2019-05-10T06:29:16.339Z,2.20
2019-05-10T06:30:07.556Z,2.40
2019-05-10T06:31:07.558Z,2.40
2019-05-10T06:32:07.511Z,2.00
2019-05-10T06:33:12.538Z,2.10
2019-05-10T06:34:07.465Z,2.20
2019-05-10T06:35:07.440Z,2.40
2019-05-10T06:36:07.417Z,2.80
2019-05-10T06:37:07.394Z,2.20
2019-05-10T06:38:07.370Z,2.20
2019-05-10T06:39:07.348Z,2.10
2019-05-10T06:40:08.833Z,1.90
2019-05-10T06:41:10.270Z,2.10
2019-05-10T06:42:07.278Z,2.10
2019-05-10T06:43:13.403Z,2.30
2019-05-10T06:44:07.232Z,2.60
2019-05-10T06:45:14.540Z,2.20
2019-05-10T06:46:08.688Z,2.80
2019-05-10T06:47:08.109Z,2.90
2019-05-10T06:48:07.140Z,3.10
2019-05-10T06:49:09.801Z,2.70
2019-05-10T06:50:07.094Z,2.50
2019-05-10T06:51:09.555Z,2.40
2019-05-10T06:52:07.047Z,2.70
2019-05-10T06:53:10.544Z,2.30
2019-05-10T06:54:07.020Z,2.60
2019-05-10T06:55:06.979Z,2.60
2019-05-10T06:56:06.957Z,2.60
2019-05-10T06:57:11.094Z,3.00
2019-05-10T06:58:06.911Z,3.10
2019-05-10T06:59:13.655Z,3.10
2019-05-10T07:00:08.063Z,3.20
2019-05-10T07:01:06.842Z,3.30
2019-05-10T07:02:06.820Z,2.90
2019-05-10T07:03:06.797Z,2.30
2019-05-10T07:04:06.775Z,2.40
2019-05-10T07:05:06.754Z,2.90
2019-05-10T07:06:06.729Z,3.40
2019-05-10T07:07:09.695Z,3.60
2019-05-10T07:08:15.030Z,2.80
2019-05-10T07:09:06.660Z,3.20
2019-05-10T07:10:17.673Z,2.90
2019-05-10T07:11:06.616Z,3.50
2019-05-10T07:12:09.298Z,3.30
2019-05-10T07:13:06.895Z,3.00
2019-05-10T07:14:06.550Z,3.80
2019-05-10T07:15:06.526Z,4.40
2019-05-10T07:16:06.502Z,3.40
2019-05-10T07:17:06.482Z,4.10
2019-05-10T07:18:06.457Z,4.00
2019-05-10T07:19:06.435Z,4.10
2019-05-10T07:20:06.412Z,4.80
2019-05-10T07:21:08.581Z,4.20
2019-05-10T07:22:06.366Z,3.90
2019-05-10T07:23:07.855Z,6.10
2019-05-10T07:24:06.321Z,5.20
2019-05-10T07:25:07.618Z,6.00
2019-05-10T07:26:09.687Z,4.40
2019-05-10T07:27:06.251Z,4.20
2019-05-10T07:28:13.352Z,3.60
2019-05-10T07:29:06.215Z,3.30
2019-05-10T07:30:06.187Z,3.80
2019-05-10T07:31:06.162Z,3.30
2019-05-10T07:32:06.150Z,4.00
2019-05-10T07:33:06.119Z,3.30
2019-05-10T07:34:09.656Z,3.00
2019-05-10T07:35:06.069Z,2.90
2019-05-10T07:36:14.460Z,2.90
2019-05-10T07:37:06.024Z,2.80
2019-05-10T07:38:06.001Z,3.00
2019-05-10T07:39:08.239Z,3.30
2019-05-10T07:40:05.960Z,2.90
2019-05-10T07:41:05.983Z,3.60
2019-05-10T07:42:06.873Z,3.60
2019-05-10T07:43:05.888Z,3.30
2019-05-10T07:44:08.181Z,3.00
2019-05-10T07:45:05.844Z,2.70
2019-05-10T07:46:06.825Z,2.50
2019-05-10T07:47:05.797Z,2.90
2019-05-10T07:48:08.039Z,2.50
2019-05-10T07:49:05.750Z,4.60
2019-05-10T07:50:09.786Z,3.40
2019-05-10T07:51:05.718Z,5.00
2019-05-10T07:52:05.684Z,4.00
2019-05-10T07:53:05.661Z,4.00
2019-05-10T07:54:06.458Z,3.10
2019-05-10T07:55:05.622Z,2.70
2019-05-10T07:56:06.659Z,2.20
2019-05-10T07:57:06.327Z,1.90
2019-05-10T07:58:07.086Z,1.80
2019-05-10T07:59:05.527Z,1.70
2019-05-10T08:00:06.127Z,2.10
2019-05-10T08:01:05.482Z,2.00
2019-05-10T08:02:12.234Z,2.20
2019-05-10T08:03:15.230Z,2.30
2019-05-10T08:04:05.416Z,2.10
2019-05-10T08:05:10.869Z,1.80
2019-05-10T08:06:05.374Z,2.00
2019-05-10T08:07:07.539Z,1.90
2019-05-10T08:08:05.329Z,1.80
2019-05-10T08:09:07.112Z,1.70
2019-05-10T08:10:05.287Z,1.70
2019-05-10T08:11:05.262Z,1.60
2019-05-10T08:12:05.572Z,2.10
2019-05-10T08:13:05.218Z,1.90
2019-05-10T08:14:06.593Z,1.90
2019-05-10T08:15:05.176Z,1.90
2019-05-10T08:16:09.850Z,2.00
2019-05-10T08:17:06.270Z,1.80
2019-05-10T08:18:05.110Z,2.10
2019-05-10T08:19:05.089Z,1.80
2019-05-10T08:20:09.029Z,1.80
2019-05-10T08:21:20.962Z,1.90
2019-05-10T08:22:05.027Z,2.00
2019-05-10T08:23:05.004Z,1.60
2019-05-10T08:24:13.727Z,1.80
2019-05-10T08:25:04.960Z,2.00
2019-05-10T08:26:04.940Z,2.00
2019-05-10T08:27:11.205Z,2.20
2019-05-10T08:28:05.565Z,1.80
2019-05-10T08:29:07.548Z,2.00
2019-05-10T08:30:20.074Z,1.90
2019-05-10T08:31:04.833Z,2.20
2019-05-10T08:32:04.811Z,2.10
2019-05-10T08:33:09.328Z,2.00
2019-05-10T08:34:04.768Z,2.20
2019-05-10T08:35:05.457Z,2.10
2019-05-10T08:36:05.443Z,2.00
2019-05-10T08:37:04.702Z,1.90
2019-05-10T08:38:04.723Z,1.80
2019-05-10T08:39:10.291Z,1.80
2019-05-10T08:40:04.638Z,2.00
2019-05-10T08:41:08.201Z,2.00
2019-05-10T08:42:19.811Z,2.10
2019-05-10T08:43:08.405Z,2.00
2019-05-10T08:44:05.106Z,2.20
2019-05-10T08:45:08.649Z,2.40
2019-05-10T08:46:05.259Z,1.90
2019-05-10T08:47:07.735Z,2.50
2019-05-10T08:48:06.870Z,2.50
2019-05-10T08:49:04.445Z,2.20
2019-05-10T08:50:17.992Z,2.60
2019-05-10T08:51:07.560Z,2.20
2019-05-10T08:52:04.379Z,1.90
2019-05-10T08:53:10.527Z,1.80
2019-05-10T08:54:04.338Z,2.00
2019-05-10T08:55:04.319Z,1.80
2019-05-10T08:56:07.651Z,2.00
2019-05-10T08:57:05.275Z,2.20
2019-05-10T08:58:04.254Z,2.20
2019-05-10T08:59:09.422Z,2.00
2019-05-10T09:00:08.858Z,1.90
2019-05-10T09:01:16.660Z,2.00
2019-05-10T09:02:04.169Z,2.10
2019-05-10T09:03:09.398Z,2.10
2019-05-10T09:04:06.806Z,2.00
2019-05-10T09:05:04.106Z,2.40
2019-05-10T09:06:11.512Z,2.30
2019-05-10T09:07:04.065Z,2.60
2019-05-10T09:08:05.817Z,2.70
2019-05-10T09:09:08.214Z,2.40
2019-05-10T09:10:03.999Z,2.60
2019-05-10T09:11:06.805Z,2.10
2019-05-10T09:12:08.922Z,2.30
2019-05-10T09:13:06.188Z,2.00
2019-05-10T09:14:03.917Z,2.10
2019-05-10T09:15:09.372Z,2.00
2019-05-10T09:16:03.872Z,2.20
2019-05-10T09:17:04.596Z,2.10
2019-05-10T09:18:07.361Z,1.90
2019-05-10T09:19:03.807Z,1.70
2019-05-10T09:20:03.787Z,1.70
2019-05-10T09:21:08.917Z,1.90
2019-05-10T09:22:03.743Z,2.30
2019-05-10T09:23:08.773Z,1.90
2019-05-10T09:24:06.530Z,1.80
2019-05-10T09:25:03.676Z,2.00
2019-05-10T09:26:10.230Z,1.90
2019-05-10T09:27:03.636Z,1.90
2019-05-10T09:28:11.580Z,2.40
2019-05-10T09:29:03.591Z,2.10
2019-05-10T09:30:08.226Z,2.20
2019-05-10T09:31:17.071Z,2.00
2019-05-10T09:32:06.230Z,2.00
2019-05-10T09:33:08.772Z,2.20
2019-05-10T09:34:03.486Z,2.00
2019-05-10T09:35:07.554Z,2.00
2019-05-10T09:36:03.443Z,2.00
2019-05-10T09:37:08.016Z,1.90
2019-05-10T09:38:03.413Z,2.20
2019-05-10T09:39:03.559Z,1.80
2019-05-10T09:40:09.464Z,1.60
2019-05-10T09:41:03.340Z,1.50
2019-05-10T09:42:08.449Z,1.50
2019-05-10T09:43:05.275Z,1.60
2019-05-10T09:44:03.278Z,1.70
2019-05-10T09:45:03.289Z,1.50
2019-05-10T09:46:03.236Z,1.30
2019-05-10T09:47:03.997Z,1.60
2019-05-10T09:48:03.206Z,1.60
2019-05-10T09:49:10.021Z,1.70
2019-05-10T09:50:03.156Z,1.70
2019-05-10T09:51:04.062Z,1.80
2019-05-10T09:52:04.472Z,1.50
2019-05-10T09:53:03.092Z,1.60
2019-05-10T09:54:03.097Z,1.60
2019-05-10T09:55:03.965Z,1.80
2019-05-10T09:56:03.433Z,1.50
2019-05-10T09:57:03.013Z,1.70
2019-05-10T09:58:02.988Z,1.90
2019-05-10T09:59:02.968Z,1.80
2019-05-10T10:00:02.947Z,1.80
2019-05-10T10:01:14.854Z,1.80
2019-05-10T10:02:04.969Z,1.30
2019-05-10T10:03:02.885Z,1.60
2019-05-10T10:04:02.865Z,1.70
2019-05-10T10:05:02.846Z,1.50
2019-05-10T10:06:10.173Z,1.50
2019-05-10T10:07:02.802Z,1.60
2019-05-10T10:08:03.717Z,1.60
2019-05-10T10:09:02.760Z,1.70
2019-05-10T10:10:02.739Z,1.80
2019-05-10T10:11:14.095Z,1.80
2019-05-10T10:12:03.468Z,1.70
2019-05-10T10:13:08.400Z,2.10
2019-05-10T10:14:02.655Z,1.60
2019-05-10T10:15:02.635Z,1.50
2019-05-10T10:16:04.203Z,1.60
2019-05-10T10:17:03.304Z,1.60
2019-05-10T10:18:02.575Z,1.60
2019-05-10T10:19:02.553Z,1.70
2019-05-10T10:20:02.564Z,1.30
2019-05-10T10:21:02.511Z,1.30
2019-05-10T10:22:05.563Z,1.30
2019-05-10T10:23:02.472Z,1.50
2019-05-10T10:24:14.515Z,1.40
2019-05-10T10:25:02.432Z,1.70
2019-05-10T10:26:02.417Z,1.60
2019-05-10T10:27:02.393Z,1.50
2019-05-10T10:28:10.374Z,1.60
2019-05-10T10:29:02.351Z,1.50
2019-05-10T10:30:06.572Z,1.60
2019-05-10T10:31:05.314Z,1.60
2019-05-10T10:32:02.291Z,1.70
2019-05-10T10:33:05.710Z,1.50
2019-05-10T10:34:03.296Z,1.40
2019-05-10T10:35:02.233Z,1.50
2019-05-10T10:36:10.318Z,1.50
2019-05-10T10:37:02.194Z,1.50
2019-05-10T10:38:02.959Z,1.50
2019-05-10T10:39:02.151Z,1.70
2019-05-10T10:40:05.588Z,1.60
2019-05-10T10:41:02.111Z,1.40
2019-05-10T10:42:07.507Z,1.90
2019-05-10T10:43:02.069Z,1.40
2019-05-10T10:44:02.053Z,1.40
2019-05-10T10:45:02.029Z,1.40
2019-05-10T10:46:02.023Z,1.40
2019-05-10T10:47:01.992Z,1.80
2019-05-10T10:48:02.440Z,1.80
2019-05-10T10:49:01.944Z,1.50
2019-05-10T10:50:03.075Z,1.50
2019-05-10T10:51:01.904Z,1.60
2019-05-10T10:52:05.707Z,1.20
2019-05-10T10:53:01.861Z,1.30
2019-05-10T10:54:01.871Z,1.50
2019-05-10T10:55:05.785Z,1.60
2019-05-10T10:56:03.731Z,1.50
2019-05-10T10:57:01.780Z,1.40
2019-05-10T10:58:01.759Z,1.60
2019-05-10T10:59:01.739Z,1.70
2019-05-10T11:00:01.720Z,1.80
2019-05-10T11:01:01.713Z,1.40
2019-05-10T11:02:27.871Z,1.40
2019-05-10T11:03:01.663Z,1.60
2019-05-10T11:04:03.738Z,1.30
2019-05-10T11:05:01.621Z,1.30
2019-05-10T11:06:01.599Z,1.50
2019-05-10T11:07:10.310Z,1.30
2019-05-10T11:08:01.559Z,1.40
2019-05-10T11:09:01.848Z,1.60
2019-05-10T11:10:14.689Z,1.60
2019-05-10T11:11:01.501Z,1.30
2019-05-10T11:12:01.481Z,1.50
2019-05-10T11:13:05.783Z,1.30
2019-05-10T11:14:07.066Z,1.40
2019-05-10T11:15:01.425Z,1.40
2019-05-10T11:16:09.658Z,1.50
2019-05-10T11:17:01.387Z,1.30
2019-05-10T11:18:01.367Z,1.80
2019-05-10T11:19:03.708Z,1.50
2019-05-10T11:20:01.329Z,1.80
2019-05-10T11:21:02.125Z,1.50
2019-05-10T11:22:02.194Z,1.80
2019-05-10T11:23:01.273Z,1.50
2019-05-10T11:24:01.482Z,1.30
2019-05-10T11:25:08.880Z,1.40
2019-05-10T11:26:01.451Z,1.40
2019-05-10T11:27:01.239Z,1.50
2019-05-10T11:28:01.885Z,1.20
2019-05-10T11:29:01.406Z,1.30
2019-05-10T11:30:01.209Z,1.50
2019-05-10T11:31:01.286Z,1.60
2019-05-10T11:32:15.163Z,1.70
2019-05-10T11:33:01.087Z,1.40
2019-05-10T11:34:01.658Z,1.50
2019-05-10T11:35:01.051Z,1.50
2019-05-10T11:36:04.064Z,1.60
2019-05-10T11:37:01.014Z,1.50
2019-05-10T11:38:01.264Z,1.60
2019-05-10T11:39:01.649Z,1.30
2019-05-10T11:40:01.801Z,1.50
2019-05-10T11:41:02.014Z,2.00
2019-05-10T11:42:06.757Z,4.00
2019-05-10T11:43:01.498Z,1.80
2019-05-10T11:44:05.510Z,1.40
2019-05-10T11:45:00.954Z,1.50
2019-05-10T11:46:00.849Z,1.40
2019-05-10T11:47:01.552Z,1.50
2019-05-10T11:48:02.182Z,1.40
2019-05-10T11:49:01.743Z,1.50
2019-05-10T11:50:06.288Z,1.20
2019-05-10T11:51:00.761Z,1.40
2019-05-10T11:52:01.637Z,1.30
2019-05-10T11:53:01.046Z,1.30
2019-05-10T11:54:01.454Z,1.50
2019-05-10T11:55:01.206Z,1.40
2019-05-10T11:56:01.992Z,1.50
2019-05-10T11:57:06.590Z,1.30
2019-05-10T11:59:02.519Z,1.30
2019-05-10T12:00:00.594Z,1.20
2019-05-10T12:01:12.860Z,1.20
2019-05-10T12:02:02.895Z,1.10
2019-05-10T12:03:08.791Z,1.50
2019-05-10T12:04:02.148Z,1.40
2019-05-10T12:05:11.121Z,1.40
2019-05-10T12:06:06.154Z,1.20
2019-05-10T12:07:02.697Z,1.30
2019-05-10T12:08:02.132Z,1.20
2019-05-10T12:09:03.854Z,1.40
2019-05-10T12:10:08.302Z,1.50
2019-05-10T12:11:10.988Z,1.60
2019-05-10T12:12:03.295Z,1.30
2019-05-10T12:14:02.402Z,1.30
2019-05-10T12:15:04.369Z,1.10
2019-05-10T12:16:00.307Z,1.30
2019-05-10T12:17:02.274Z,1.20
2019-05-10T12:18:04.536Z,1.20
2019-05-10T12:19:10.551Z,1.30
2019-05-10T12:20:02.548Z,1.30
2019-05-10T12:21:09.052Z,1.40
2019-05-10T12:22:04.697Z,1.30
2019-05-10T12:23:03.179Z,1.40
2019-05-10T12:24:10.316Z,1.70
2019-05-10T12:25:23.306Z,1.30
2019-05-10T12:26:18.785Z,1.30
2019-05-10T12:26:27.034Z,1.40
2019-05-10T12:27:13.340Z,1.50
2019-05-10T12:27:18.473Z,1.30
2019-05-10T12:28:01.253Z,1.40
2019-05-10T12:29:11.516Z,1.40
2019-05-10T12:30:03.255Z,1.20
2019-05-10T12:31:01.447Z,1.50
2019-05-10T12:32:00.025Z,1.40
2019-05-10T12:33:08.048Z,1.40
2019-05-10T12:34:08.727Z,1.50
2019-05-10T12:35:01.495Z,1.50
2019-05-10T12:35:59.954Z,1.40
2019-05-10T12:37:03.858Z,1.50
2019-05-10T12:38:01.670Z,1.50
2019-05-10T12:39:01.829Z,1.30
2019-05-10T12:40:09.006Z,1.40
2019-05-10T12:41:01.343Z,1.40
2019-05-10T12:41:59.847Z,1.30
2019-05-10T12:43:00.667Z,1.40
2019-05-10T12:44:04.072Z,1.30
2019-05-10T12:45:01.259Z,1.20
2019-05-10T12:45:59.779Z,1.30
2019-05-10T12:47:01.315Z,1.50
2019-05-10T12:48:01.288Z,1.80
2019-05-10T12:49:02.071Z,1.20
2019-05-10T12:50:02.064Z,1.40
2019-05-10T12:51:07.563Z,1.50
2019-05-10T12:51:59.670Z,1.40
2019-05-10T12:53:12.627Z,1.90
2019-05-10T12:53:59.636Z,1.60
2019-05-10T12:54:59.620Z,1.50
2019-05-10T12:55:59.599Z,1.50
2019-05-10T12:56:59.582Z,1.80
2019-05-10T12:57:59.564Z,2.90
2019-05-10T12:58:59.861Z,1.70
2019-05-10T12:59:59.532Z,1.50
2019-05-10T13:00:59.513Z,1.50
2019-05-10T13:02:04.373Z,1.20
2019-05-10T13:03:12.400Z,1.30
2019-05-10T13:04:02.025Z,1.40
2019-05-10T13:05:02.445Z,1.60
2019-05-10T13:05:59.425Z,1.50
2019-05-10T13:06:59.408Z,1.50
2019-05-10T13:07:59.391Z,1.40
2019-05-10T13:08:59.372Z,1.10
2019-05-10T13:10:03.864Z,1.20
2019-05-10T13:11:00.088Z,1.10
2019-05-10T13:12:03.885Z,1.20
2019-05-10T13:12:59.300Z,1.00
2019-05-10T13:14:01.025Z,1.10
2019-05-10T13:14:59.264Z,1.10
2019-05-10T13:16:03.507Z,1.30
2019-05-10T13:17:03.871Z,1.00
2019-05-10T13:17:59.206Z,1.10